createdAt,value
2018-04-28T09:23:49.711Z,21.60
2018-04-28T09:24:43.781Z,21.90
2018-04-28T09:25:37.138Z,22.00
2018-04-28T09:26:30.529Z,22.10
2018-04-28T09:27:28.993Z,22.20
2018-04-28T09:28:22.270Z,22.20
2018-04-28T09:29:15.480Z,22.30
2018-04-28T09:30:08.783Z,22.30
2018-04-28T09:31:03.337Z,22.30
2018-04-28T09:31:56.668Z,22.30
2018-04-28T09:32:50.773Z,22.40
2018-04-28T09:33:43.985Z,22.40
2018-04-28T09:34:37.396Z,22.40
2018-04-28T09:35:31.739Z,22.50
2018-04-28T09:36:24.959Z,22.50
2018-04-28T09:37:18.348Z,22.50
2018-04-28T09:38:11.648Z,22.50
2018-04-28T09:39:04.869Z,22.60
2018-04-28T09:39:58.682Z,22.90
2018-04-28T09:40:52.128Z,23.10
2018-04-28T09:41:45.369Z,23.10
2018-04-28T09:42:38.622Z,23.20
2018-04-28T09:43:31.972Z,23.20
2018-04-28T09:44:25.934Z,23.30
2018-04-28T09:45:19.144Z,23.30
2018-04-28T09:46:12.396Z,23.40
2018-04-28T09:47:05.615Z,23.50
2018-04-28T09:47:58.885Z,23.50
2018-04-28T09:48:52.880Z,23.50
2018-04-28T09:49:47.192Z,23.60
2018-04-28T09:50:40.390Z,23.60
2018-04-28T09:51:34.340Z,23.60
2018-04-28T09:52:28.299Z,23.60
2018-04-28T09:53:21.517Z,23.60
2018-04-28T09:54:14.716Z,23.60
2018-04-28T09:55:07.907Z,23.60
2018-04-28T09:56:01.184Z,23.70
2018-04-28T09:56:54.379Z,23.70
2018-04-28T09:58:00.263Z,23.70
2018-04-28T09:58:53.509Z,23.70
2018-04-28T09:59:46.746Z,23.70
2018-04-28T10:00:56.377Z,23.70
2018-04-28T20:31:10.486Z,22.30
2018-04-28T20:32:05.905Z,22.30
2018-04-28T20:32:59.272Z,22.30
2018-04-28T20:33:52.784Z,22.20
2018-04-28T20:34:46.028Z,22.30
2018-04-28T20:35:39.242Z,22.20
2018-04-28T20:36:32.609Z,22.30
2018-04-28T20:37:25.848Z,22.20
2018-04-28T20:38:19.108Z,22.30
2018-04-28T20:39:12.481Z,22.20
2018-04-28T20:40:06.296Z,22.20
2018-04-28T20:40:59.481Z,22.20
2018-04-28T20:41:52.769Z,22.20
2018-04-28T20:42:46.013Z,22.30
2018-04-28T20:43:39.216Z,22.20
2018-04-28T20:44:32.569Z,22.30
2018-04-28T20:45:25.813Z,22.30
2018-04-28T20:46:19.028Z,22.30
2018-04-28T20:47:12.243Z,22.30
2018-04-28T20:48:06.280Z,22.20
2018-04-28T20:48:59.506Z,22.20
2018-04-28T20:49:52.731Z,22.10
2018-04-28T20:50:46.084Z,22.00
2018-04-28T20:51:39.588Z,21.90
2018-04-28T20:52:32.849Z,21.70
2018-04-28T20:53:26.178Z,21.60
2018-04-28T20:54:19.486Z,21.50
2018-04-28T20:55:12.782Z,21.40
2018-04-28T20:56:06.815Z,21.30
2018-04-28T20:57:00.931Z,21.30
2018-04-28T20:57:54.180Z,21.20
2018-04-28T20:58:48.362Z,21.10
2018-04-28T20:59:41.909Z,21.10
2018-04-28T21:00:35.941Z,21.00
2018-04-28T21:01:30.199Z,21.00
2018-04-28T21:02:23.498Z,21.00
2018-04-28T21:03:17.491Z,20.90
2018-04-28T21:04:10.948Z,20.90
2018-04-28T21:05:04.299Z,20.90
2018-04-28T21:05:59.770Z,20.90
2018-04-28T21:06:53.921Z,20.80
2018-04-28T21:07:48.113Z,20.70
2018-04-28T21:08:42.204Z,20.70
2018-04-28T21:09:35.620Z,20.70
2018-04-28T21:10:29.615Z,20.70
2018-04-28T21:11:22.897Z,20.70
2018-04-28T21:12:16.286Z,20.60
2018-04-28T21:13:09.674Z,20.60
2018-04-28T21:14:03.944Z,20.60
2018-04-28T21:14:57.325Z,20.60
2018-04-28T21:15:50.613Z,20.50
2018-04-28T21:16:44.668Z,20.40
2018-04-28T21:17:37.928Z,20.50
2018-04-28T21:18:31.904Z,20.40
2018-04-28T21:19:26.092Z,20.40
2018-04-28T21:20:20.248Z,20.40
2018-04-28T21:21:13.530Z,20.40
2018-04-28T21:22:06.789Z,20.30
2018-04-28T21:23:00.045Z,20.30
2018-04-28T21:23:53.374Z,20.30
2018-04-28T21:24:46.744Z,20.30
2018-04-28T21:25:40.080Z,20.20
2018-04-28T21:26:33.407Z,20.20
2018-04-28T21:27:27.712Z,20.20
2018-04-28T21:28:21.064Z,20.20
2018-04-28T21:29:14.313Z,20.20
2018-04-28T21:30:07.628Z,20.10
2018-04-28T21:31:00.949Z,20.20
2018-04-28T21:31:55.112Z,20.10
2018-04-28T21:32:49.169Z,20.10
2018-04-28T21:33:42.476Z,20.00
2018-04-28T21:34:36.027Z,20.00
2018-04-28T21:35:29.441Z,20.00
2018-04-28T21:36:22.819Z,20.00
2018-04-28T21:37:16.117Z,20.00
2018-04-28T21:38:09.468Z,20.00
2018-04-28T21:39:03.968Z,19.90
2018-04-28T21:39:57.938Z,19.90
2018-04-28T21:40:51.314Z,19.90
2018-04-28T21:41:44.712Z,19.90
2018-04-28T21:42:38.138Z,19.90
2018-04-28T21:43:31.419Z,20.00
2018-04-28T21:44:24.777Z,20.10
2018-04-28T21:45:19.783Z,20.20
2018-04-28T21:46:13.018Z,20.30
2018-04-28T21:47:07.089Z,20.40
2018-04-28T21:48:02.262Z,20.40
2018-04-28T21:48:55.438Z,20.40
2018-04-28T21:49:49.359Z,20.50
2018-04-28T21:50:42.525Z,20.60
2018-04-28T21:51:36.545Z,20.70
2018-04-28T21:52:29.762Z,20.70
2018-04-28T21:53:23.030Z,20.70
2018-04-28T21:54:16.274Z,20.70
2018-04-28T21:55:09.511Z,20.80
2018-04-28T21:56:02.706Z,20.80
2018-04-28T21:56:56.707Z,20.80
2018-04-28T21:57:50.019Z,20.80
2018-04-28T21:58:43.238Z,20.90
2018-04-28T21:59:36.447Z,20.90
2018-04-28T22:00:31.728Z,20.90
2018-04-28T22:01:24.954Z,20.90
2018-04-28T22:02:18.290Z,20.90
2018-04-28T22:03:11.455Z,21.00
2018-04-28T22:04:04.842Z,21.00
2018-04-28T22:04:58.815Z,21.00
2018-04-28T22:05:52.024Z,21.00
2018-04-28T22:06:45.296Z,21.00
2018-04-28T22:07:38.542Z,21.00
2018-04-28T22:08:32.528Z,21.10
2018-04-28T22:09:25.834Z,21.00
2018-04-28T22:10:18.999Z,21.10
2018-04-28T22:11:13.004Z,21.20
2018-04-28T22:12:06.175Z,21.20
2018-04-28T22:12:59.575Z,21.20
2018-04-28T22:13:53.508Z,21.30
2018-04-28T22:14:46.741Z,21.30
2018-04-28T22:15:40.160Z,21.30
2018-04-28T22:16:33.387Z,21.40
2018-04-28T22:17:26.709Z,21.40
2018-04-28T22:18:20.162Z,21.40
2018-04-28T22:19:13.342Z,21.40
2018-04-28T22:20:06.594Z,21.40
2018-04-28T22:20:59.839Z,21.40
2018-04-28T22:21:53.078Z,21.40
2018-04-28T22:22:47.074Z,21.50
2018-04-28T22:23:40.461Z,21.50
2018-04-28T22:24:33.656Z,21.50
2018-04-28T22:25:26.829Z,21.50
2018-04-28T22:26:20.155Z,21.50
2018-04-28T22:27:13.344Z,21.50
2018-04-28T22:28:06.643Z,21.50
2018-04-28T22:28:59.837Z,21.50
2018-04-28T22:29:53.077Z,21.50
2018-04-28T22:30:46.289Z,21.50
2018-04-28T22:31:39.573Z,21.50
2018-04-28T22:32:32.769Z,21.60
2018-04-28T22:33:25.989Z,21.50
2018-04-28T22:34:19.215Z,21.50
2018-04-28T22:35:12.528Z,21.60
2018-04-28T22:36:05.807Z,21.50
2018-04-28T22:36:59.017Z,21.60
2018-04-28T22:37:52.197Z,21.60
2018-04-28T22:38:45.353Z,21.60
2018-04-28T22:39:39.348Z,21.60
2018-04-28T22:40:32.559Z,21.60
2018-04-28T22:41:25.763Z,21.60
2018-04-28T22:42:20.648Z,21.60
2018-04-28T22:43:14.583Z,21.60
2018-04-28T22:44:08.667Z,21.60
2018-04-28T22:45:01.932Z,21.60
2018-04-28T22:45:55.917Z,21.60
2018-04-28T22:46:49.116Z,21.60
2018-04-28T22:47:42.298Z,21.60
2018-04-28T22:48:35.494Z,21.60
2018-04-28T22:49:28.879Z,21.60
2018-04-28T22:50:22.868Z,21.60
2018-04-28T22:51:16.064Z,21.60
2018-04-28T22:52:10.046Z,21.60
